Time;durP1;ratioP1;P1;durP2;ratioP2;P2;SDS_P1;SDS_P2;PMS_P1;PMS_P2;Temp;Humidity;BMP_temperature;BMP_pressure;BME280_temperature;BME280_humidity;BME280_pressure;Samples;Min_cycle;Max_cycle;Signal;HPM_P1;HPM_P2
2021/06/01 00:01:13;;;;;;;1999.90;999.90;;;;;;;9.25;100.00;95392.56;5071450;28;20684;-61
2021/06/01 00:03:39;;;;;;;1999.90;999.90;;;;;;;9.18;100.00;95397.34;5071223;28;20189;-60
2021/06/01 00:06:08;;;;;;;1999.90;999.90;;;;;;;9.23;100.00;95400.63;5071466;28;20204;-60
2021/06/01 00:08:34;;;;;;;1999.90;999.90;;;;;;;9.22;100.00;95395.69;5071283;28;20196;-60
2021/06/01 00:11:01;;;;;;;1999.90;999.90;;;;;;;9.15;100.00;95392.72;5071544;28;20193;-60
2021/06/01 00:13:29;;;;;;;1999.90;999.90;;;;;;;9.12;100.00;95388.88;5071280;28;20655;-60
2021/06/01 00:15:55;;;;;;;1999.90;999.90;;;;;;;9.16;100.00;95389.09;5071340;28;20207;-60
2021/06/01 00:18:22;;;;;;;1999.90;999.90;;;;;;;9.08;100.00;95387.91;5070967;28;20245;-60
2021/06/01 00:20:49;;;;;;;1999.90;999.90;;;;;;;9.06;100.00;95390.81;5070946;28;20193;-60
2021/06/01 00:23:17;;;;;;;1999.90;999.90;;;;;;;9.08;100.00;95382.72;5070719;28;20235;-60
2021/06/01 00:25:44;;;;;;;1999.90;999.90;;;;;;;9.06;100.00;95379.66;5070957;28;20235;-60
2021/06/01 00:28:11;;;;;;;1999.90;999.90;;;;;;;9.13;100.00;95379.28;5070781;28;20199;-58
2021/06/01 00:30:40;;;;;;;1999.90;999.90;;;;;;;9.04;100.00;95381.78;5070771;28;20283;-61
2021/06/01 00:33:07;;;;;;;1999.90;999.90;;;;;;;9.03;100.00;95381.00;5070573;28;20590;-61
2021/06/01 00:35:35;;;;;;;1999.90;999.90;;;;;;;9.01;100.00;95372.75;5070769;28;20196;-60
2021/06/01 00:38:01;;;;;;;1999.90;999.90;;;;;;;8.95;100.00;95378.31;5070618;28;20677;-61
2021/06/01 00:40:30;;;;;;;1999.90;999.90;;;;;;;8.96;100.00;95372.06;5069734;28;20200;-60
2021/06/01 00:42:57;;;;;;;1999.90;999.90;;;;;;;8.98;100.00;95372.53;5070594;28;20667;-60
2021/06/01 00:45:25;;;;;;;1999.90;999.90;;;;;;;8.90;100.00;95373.19;5070508;28;20224;-60
2021/06/01 00:47:52;;;;;;;1999.90;999.90;;;;;;;8.85;100.00;95370.69;5070549;28;20188;-60
2021/06/01 00:50:22;;;;;;;1999.90;999.90;;;;;;;8.79;100.00;95382.97;5070607;28;20212;-60
2021/06/01 00:52:49;;;;;;;1999.90;999.90;;;;;;;8.76;100.00;95373.19;5070303;28;20201;-60
2021/06/01 00:55:16;;;;;;;1999.90;999.90;;;;;;;8.77;100.00;95368.75;5070480;28;20283;-61
2021/06/01 00:57:44;;;;;;;1999.90;999.90;;;;;;;8.78;100.00;95362.50;5070625;28;20204;-59
2021/06/01 01:00:25;;;;;;;1999.90;999.90;;;;;;;8.81;100.00;95367.16;5070292;28;20196;-59
2021/06/01 01:02:52;;;;;;;1999.90;999.90;;;;;;;8.87;100.00;95368.56;5070376;28;20631;-59
2021/06/01 01:05:21;;;;;;;1999.90;999.90;;;;;;;8.94;100.00;95371.56;5070177;28;20224;-59
2021/06/01 01:08:03;;;;;;;1999.90;999.90;;;;;;;9.03;100.00;95370.63;5070802;28;20204;-59
2021/06/01 01:10:31;;;;;;;1999.90;999.90;;;;;;;9.10;100.00;95370.25;5070400;28;20228;-59
2021/06/01 01:13:04;;;;;;;1999.90;999.90;;;;;;;9.05;100.00;95372.94;5070451;28;20220;-60
2021/06/01 01:15:33;;;;;;;1999.90;999.90;;;;;;;9.13;100.00;95374.09;5070180;28;20204;-59
2021/06/01 01:18:05;;;;;;;1999.90;999.90;;;;;;;9.08;100.00;95369.78;5070055;28;20193;-60
2021/06/01 01:20:36;;;;;;;1999.90;999.90;;;;;;;9.22;100.00;95374.97;5070126;28;20684;-59
2021/06/01 01:23:10;;;;;;;1999.90;999.90;;;;;;;9.24;100.00;95365.84;5069899;28;20236;-59
2021/06/01 01:25:42;;;;;;;1999.90;999.90;;;;;;;9.24;100.00;95373.63;5069960;28;20231;-59
2021/06/01 01:28:27;;;;;;;1999.90;999.90;;;;;;;9.38;100.00;95368.44;5070532;28;20785;-59
2021/06/01 01:30:59;;;;;;;1999.90;999.90;;;;;;;9.33;100.00;95366.72;5070188;28;20224;-61
2021/06/01 01:33:32;;;;;;;1999.90;999.90;;;;;;;9.28;100.00;95368.63;5070208;28;20339;-60
2021/06/01 01:36:02;;;;;;;1999.90;999.90;;;;;;;9.23;100.00;95366.91;5070008;28;20207;-59
2021/06/01 01:38:29;;;;;;;1999.90;999.90;;;;;;;9.27;100.00;95362.69;5069966;28;20205;-59
2021/06/01 01:41:00;;;;;;;1999.90;999.90;;;;;;;9.32;100.00;95362.59;5070007;28;20229;-60
2021/06/01 01:43:30;;;;;;;1999.90;999.90;;;;;;;9.28;100.00;95360.84;5074092;28;20203;-61
2021/06/01 01:46:05;;;;;;;1999.90;999.90;;;;;;;9.25;100.00;95357.03;5074053;28;20677;-58
2021/06/01 01:51:19;;;;;;;1999.90;999.90;;;;;;;9.37;100.00;95354.72;5073999;28;20212;-59
2021/06/01 01:53:51;;;;;;;1999.90;999.90;;;;;;;9.37;100.00;95357.31;5073977;28;20627;-59
2021/06/01 01:56:20;;;;;;;1999.90;999.90;;;;;;;9.38;100.00;95356.25;5073857;28;20275;-60
2021/06/01 01:58:49;;;;;;;1999.90;999.90;;;;;;;9.40;100.00;95353.38;5073798;28;20641;-60
2021/06/01 02:01:17;;;;;;;1999.90;999.90;;;;;;;9.42;100.00;95351.25;5073557;28;20200;-59
2021/06/01 02:03:45;;;;;;;1999.90;999.90;;;;;;;9.55;100.00;95360.09;5073658;28;20232;-60
2021/06/01 02:06:13;;;;;;;1999.90;999.90;;;;;;;9.55;100.00;95350.50;5073492;28;20646;-59
2021/06/01 02:08:40;;;;;;;1999.90;999.90;;;;;;;9.58;100.00;95349.13;5073617;28;20192;-58
2021/06/01 02:11:07;;;;;;;1999.90;999.90;;;;;;;9.68;100.00;95348.94;5073443;28;20249;-60
2021/06/01 02:13:42;;;;;;;1999.90;999.90;;;;;;;9.76;100.00;95348.25;5073409;28;20196;-58
2021/06/01 02:16:09;;;;;;;1999.90;999.90;;;;;;;9.84;100.00;95347.56;5073628;28;20210;-59
2021/06/01 02:18:36;;;;;;;1999.90;999.90;;;;;;;9.86;100.00;95340.28;5073477;28;20223;-59
2021/06/01 02:21:08;;;;;;;1999.90;999.90;;;;;;;10.04;100.00;95336.75;5073200;28;20196;-61
2021/06/01 02:23:48;;;;;;;1999.90;999.90;;;;;;;10.02;100.00;95340.69;5073255;28;20778;-60
2021/06/01 02:26:27;;;;;;;1999.90;999.90;;;;;;;10.02;100.00;95335.50;5073045;28;20235;-59
2021/06/01 02:28:59;;;;;;;1999.90;999.90;;;;;;;10.08;100.00;95337.69;5073143;28;20199;-60
2021/06/01 02:31:31;;;;;;;1999.90;999.90;;;;;;;10.15;100.00;95334.69;5073192;28;20192;-60
2021/06/01 02:33:59;;;;;;;1999.90;999.90;;;;;;;10.06;100.00;95333.88;5073110;28;20543;-60
2021/06/01 02:36:29;;;;;;;1999.90;999.90;;;;;;;10.05;100.00;95337.53;5072939;28;20243;-59
2021/06/01 02:38:58;;;;;;;1999.90;999.90;;;;;;;10.10;100.00;95342.59;5073113;28;20223;-57
2021/06/01 02:41:25;;;;;;;1999.90;999.90;;;;;;;10.17;100.00;95340.38;5072934;28;20193;-60
2021/06/01 02:43:52;;;;;;;1999.90;999.90;;;;;;;10.14;100.00;95343.56;5073077;28;20201;-59
2021/06/01 02:46:19;;;;;;;1999.90;999.90;;;;;;;10.11;100.00;95342.28;5072769;28;20228;-59
2021/06/01 02:48:48;;;;;;;1999.90;999.90;;;;;;;10.07;100.00;95340.56;5072688;28;20207;-59
2021/06/01 02:51:15;;;;;;;1999.90;999.90;;;;;;;10.07;100.00;95340.56;5072677;28;20192;-60
2021/06/01 02:53:46;;;;;;;1999.90;999.90;;;;;;;10.19;100.00;95333.84;5071758;28;20212;-61
2021/06/01 02:56:14;;;;;;;1999.90;999.90;;;;;;;10.37;100.00;95334.72;5072938;28;20200;-60
2021/06/01 02:58:42;;;;;;;1999.90;999.90;;;;;;;10.19;100.00;95339.03;5072468;28;20197;-59
2021/06/01 03:01:12;;;;;;;1999.90;999.90;;;;;;;10.23;100.00;95337.38;5072448;28;20206;-59
2021/06/01 03:03:44;;;;;;;1999.90;999.90;;;;;;;10.21;100.00;95341.34;5072384;28;20193;-60
2021/06/01 03:06:11;;;;;;;1999.90;999.90;;;;;;;10.20;100.00;95343.19;5072650;28;20235;-59
2021/06/01 03:08:40;;;;;;;1999.90;999.90;;;;;;;10.26;100.00;95341.97;5072916;28;20200;-60
2021/06/01 03:11:09;;;;;;;1999.90;999.90;;;;;;;10.33;100.00;95339.75;5072525;28;20194;-59
2021/06/01 03:13:36;;;;;;;1999.90;999.90;;;;;;;10.28;100.00;95347.66;5072508;28;20205;-60
2021/06/01 03:16:03;;;;;;;1999.90;999.90;;;;;;;10.34;100.00;95341.31;5072181;28;20663;-60
2021/06/01 03:18:30;;;;;;;1999.90;999.90;;;;;;;10.45;100.00;95341.06;5072172;28;20656;-60
2021/06/01 03:20:58;;;;;;;1999.90;999.90;;;;;;;10.51;100.00;95339.88;5072381;28;20196;-60
2021/06/01 03:23:25;;;;;;;1999.90;999.90;;;;;;;10.57;100.00;95344.66;5071918;28;20786;-60
2021/06/01 03:25:52;;;;;;;1999.90;999.90;;;;;;;10.58;100.00;95337.63;5071921;28;20224;-59
2021/06/01 03:28:21;;;;;;;1999.90;999.90;;;;;;;10.53;100.00;95328.13;5072195;28;20208;-59
2021/06/01 03:30:49;;;;;;;1999.90;999.90;;;;;;;10.60;100.00;95344.06;5072455;28;20250;-60
2021/06/01 03:33:17;;;;;;;1999.90;999.90;;;;;;;10.43;100.00;95337.97;5071886;28;20202;-60
2021/06/01 03:35:44;;;;;;;1999.90;999.90;;;;;;;10.34;100.00;95340.53;5072010;28;20287;-59
2021/06/01 03:38:13;;;;;;;1999.90;999.90;;;;;;;10.35;100.00;95334.28;5071917;28;20315;-59
2021/06/01 03:40:40;;;;;;;1999.90;999.90;;;;;;;10.35;100.00;95339.47;5071654;28;20200;-59
2021/06/01 03:43:08;;;;;;;1999.90;999.90;;;;;;;10.45;100.00;95339.22;5071778;28;20299;-60
2021/06/01 03:45:36;;;;;;;1999.90;999.90;;;;;;;10.50;100.00;95340.94;5071475;28;20224;-59
2021/06/01 03:48:04;;;;;;;1999.90;999.90;;;;;;;10.67;100.00;95346.22;5071716;28;20667;-60
2021/06/01 03:50:31;;;;;;;1999.90;999.90;;;;;;;10.65;100.00;95343.94;5071590;28;20199;-60
2021/06/01 03:52:58;;;;;;;1999.90;999.90;;;;;;;10.80;100.00;95337.63;5071655;28;20204;-59
2021/06/01 03:55:25;;;;;;;1999.90;999.90;;;;;;;10.88;100.00;95339.47;5071619;28;20271;-59
2021/06/01 03:57:51;;;;;;;1999.90;999.90;;;;;;;10.89;100.00;95341.03;5071375;28;20198;-59
2021/06/01 04:00:21;;;;;;;1999.90;999.90;;;;;;;10.92;100.00;95335.22;5071645;28;20192;-59
2021/06/01 04:02:49;;;;;;;1999.90;999.90;;;;;;;10.85;100.00;95334.91;5071614;28;20192;-58
2021/06/01 04:05:16;;;;;;;1999.90;999.90;;;;;;;10.92;100.00;95335.22;5070883;28;20236;-59
2021/06/01 04:07:45;;;;;;;1999.90;999.90;;;;;;;10.97;100.00;95329.88;5071480;28;20204;-59
2021/06/01 04:10:13;;;;;;;1999.90;999.90;;;;;;;11.00;100.00;95337.09;5071076;28;20580;-60
2021/06/01 04:12:40;;;;;;;1999.90;999.90;;;;;;;10.98;100.00;95333.25;5071075;28;20751;-59
2021/06/01 04:15:08;;;;;;;1999.90;999.90;;;;;;;11.04;100.00;95334.66;5071137;28;20203;-60
2021/06/01 04:17:35;;;;;;;1999.90;999.90;;;;;;;11.09;100.00;95340.50;5070965;28;20200;-60
2021/06/01 04:20:06;;;;;;;1999.90;999.90;;;;;;;11.02;100.00;95331.59;5070959;28;20789;-60
2021/06/01 04:22:33;;;;;;;1999.90;999.90;;;;;;;11.03;100.00;95326.09;5070633;28;20200;-60
2021/06/01 04:25:00;;;;;;;1999.90;999.90;;;;;;;11.07;100.00;95332.22;5070511;28;20802;-61
2021/06/01 04:27:27;;;;;;;1999.90;999.90;;;;;;;11.11;100.00;95327.19;5070883;28;20588;-59
2021/06/01 04:29:54;;;;;;;1999.90;999.90;;;;;;;11.27;100.00;95324.97;5070676;28;20239;-60
2021/06/01 04:32:21;;;;;;;1999.90;999.90;;;;;;;11.23;100.00;95330.78;5070658;28;20274;-59
2021/06/01 04:34:48;;;;;;;1999.90;999.90;;;;;;;11.20;100.00;95325.41;5070834;28;20192;-59
2021/06/01 04:37:16;;;;;;;1999.90;999.90;;;;;;;11.39;100.00;95322.56;5070753;28;20203;-61
2021/06/01 04:39:43;;;;;;;1999.90;999.90;;;;;;;11.41;100.00;95315.19;5070702;28;20228;-60
2021/06/01 04:42:10;;;;;;;1999.90;999.90;;;;;;;11.45;100.00;95318.75;5070470;28;20574;-58
2021/06/01 04:44:37;;;;;;;1999.90;999.90;;;;;;;11.42;100.00;95327.16;5070782;28;20227;-60
2021/06/01 04:47:04;;;;;;;1999.90;999.90;;;;;;;11.47;100.00;95324.41;5070630;28;20222;-60
2021/06/01 04:49:31;;;;;;;1999.90;999.90;;;;;;;11.47;100.00;95316.59;5070503;28;20192;-60
2021/06/01 04:51:58;;;;;;;1999.90;999.90;;;;;;;11.39;100.00;95332.97;5070313;28;20231;-59
2021/06/01 04:54:26;;;;;;;1999.90;999.90;;;;;;;11.43;100.00;95333.88;5070335;28;20664;-60
2021/06/01 04:56:53;;;;;;;1999.90;999.90;;;;;;;11.39;100.00;95328.53;5070363;28;20296;-59
2021/06/01 04:59:20;;;;;;;1999.90;999.90;;;;;;;11.48;100.00;95326.72;5070718;28;20579;-61
2021/06/01 05:01:47;;;;;;;1999.90;999.90;;;;;;;11.48;100.00;95326.72;5070081;28;20232;-61
2021/06/01 05:04:14;;;;;;;1999.90;999.90;;;;;;;11.47;100.00;95335.59;5070368;28;20240;-60
2021/06/01 05:06:41;;;;;;;1999.90;999.90;;;;;;;11.51;100.00;95331.31;5069936;28;20224;-60
2021/06/01 05:09:08;;;;;;;1999.90;999.90;;;;;;;11.37;100.00;95333.25;5070230;28;20579;-62
2021/06/01 05:11:36;;;;;;;1999.90;999.90;;;;;;;11.44;100.00;95331.00;5070210;28;20565;-60
2021/06/01 05:14:06;;;;;;;1999.90;999.90;;;;;;;11.57;100.00;95332.69;5070147;28;20201;-61
2021/06/01 05:16:35;;;;;;;1999.90;999.90;;;;;;;11.50;100.00;95329.03;5069734;28;20188;-59
2021/06/01 05:19:01;;;;;;;1999.90;999.90;;;;;;;11.57;100.00;95332.69;5069961;28;20215;-60
2021/06/01 05:21:28;;;;;;;1999.90;999.90;;;;;;;11.46;100.00;95322.88;5069922;28;20280;-61
2021/06/01 05:23:55;;;;;;;1999.90;999.90;;;;;;;11.66;100.00;95327.50;5070105;28;20326;-60
2021/06/01 05:26:25;;;;;;;1999.90;999.90;;;;;;;11.59;100.00;95333.19;5070022;28;20622;-60
2021/06/01 05:28:54;;;;;;;1999.90;999.90;;;;;;;11.60;100.00;95332.13;5070132;28;20227;-60
2021/06/01 05:31:24;;;;;;;1999.90;999.90;;;;;;;11.66;100.00;95327.50;5069953;28;20192;-59
2021/06/01 05:33:53;;;;;;;1999.90;999.90;;;;;;;11.93;100.00;95332.50;5070061;28;20204;-60
2021/06/01 05:36:20;;;;;;;1999.90;999.90;;;;;;;11.95;99.60;95334.81;5070406;28;20231;-60
2021/06/01 05:38:47;;;;;;;1999.90;999.90;;;;;;;12.19;100.00;95326.53;5069907;28;20208;-61
2021/06/01 05:41:14;;;;;;;1999.90;999.90;;;;;;;12.34;99.18;95328.66;5069838;28;20721;-61
2021/06/01 05:43:41;;;;;;;1999.90;999.90;;;;;;;12.42;98.14;95331.25;5070099;28;20261;-61
2021/06/01 05:46:10;;;;;;;1999.90;999.90;;;;;;;12.49;98.59;95333.41;5069748;28;20239;-60
2021/06/01 05:48:37;;;;;;;1999.90;999.90;;;;;;;12.50;97.42;95329.75;5069793;28;20193;-60
2021/06/01 05:51:06;;;;;;;1999.90;999.90;;;;;;;12.72;99.18;95334.75;5070172;28;20275;-61
2021/06/01 05:53:33;;;;;;;1999.90;999.90;;;;;;;12.78;98.27;95327.53;5069848;28;20247;-61
2021/06/01 05:56:00;;;;;;;1999.90;999.90;;;;;;;12.77;97.50;95329.38;5070032;28;20231;-61
2021/06/01 05:58:27;;;;;;;1999.90;999.90;;;;;;;12.66;94.13;95335.97;5069750;28;20284;-60
2021/06/01 06:00:54;;;;;;;1999.90;999.90;;;;;;;12.64;94.27;95337.38;5069588;28;20242;-60
2021/06/01 06:03:23;;;;;;;1999.90;999.90;;;;;;;12.64;94.37;95335.53;5069992;28;20687;-61
2021/06/01 06:05:50;;;;;;;1999.90;999.90;;;;;;;12.88;96.50;95335.78;5069415;28;20224;-61
2021/06/01 06:08:18;;;;;;;1999.90;999.90;;;;;;;13.04;93.90;95332.69;5070073;28;20257;-60
2021/06/01 06:10:46;;;;;;;1999.90;999.90;;;;;;;12.92;91.54;95333.31;5069652;28;20288;-60
2021/06/01 06:13:14;;;;;;;1999.90;999.90;;;;;;;13.00;93.99;95329.16;5069583;28;20287;-61
2021/06/01 06:15:42;;;;;;;1999.90;999.90;;;;;;;13.03;90.96;95336.34;5069909;28;20227;-61
2021/06/01 06:18:18;;;;;;;1999.90;999.90;;;;;;;12.80;91.58;95333.94;5069941;28;20639;-61
2021/06/01 06:20:46;;;;;;;1999.90;999.90;;;;;;;12.68;91.60;95335.69;5069830;28;20279;-61
2021/06/01 06:23:13;;;;;;;1999.90;999.90;;;;;;;12.68;93.85;95331.22;5069603;28;20282;-60
2021/06/01 06:25:40;;;;;;;1999.90;999.90;;;;;;;12.87;94.41;95329.03;5069369;28;20608;-61
2021/06/01 06:28:07;;;;;;;1999.90;999.90;;;;;;;12.71;91.92;95335.03;5070954;28;20193;-61
2021/06/01 06:30:34;;;;;;;1999.90;999.90;;;;;;;12.52;92.99;95333.56;5073487;28;20660;-61
2021/06/01 06:33:04;;;;;;;1999.90;999.90;;;;;;;12.37;92.03;95343.69;5073372;28;20207;-60
2021/06/01 06:35:34;;;;;;;1999.90;999.90;;;;;;;12.46;93.62;95339.22;5073157;28;20203;-61
2021/06/01 06:38:02;;;;;;;1999.90;999.90;;;;;;;12.69;92.81;95338.00;5073254;28;20296;-60
2021/06/01 06:40:29;;;;;;;1999.90;999.90;;;;;;;12.76;92.26;95343.47;5072916;28;20193;-59
2021/06/01 06:42:57;;;;;;;1999.90;999.90;;;;;;;12.90;93.26;95335.50;5073217;28;20193;-61
2021/06/01 06:45:25;;;;;;;1999.90;999.90;;;;;;;13.08;91.74;95338.78;5073196;28;20224;-60
2021/06/01 06:47:58;;;;;;;1999.90;999.90;;;;;;;12.77;91.81;95337.19;5072957;28;20206;-61
2021/06/01 06:50:26;;;;;;;1999.90;999.90;;;;;;;12.91;90.91;95339.59;5072861;28;20200;-60
2021/06/01 06:52:53;;;;;;;1999.90;999.90;;;;;;;13.36;91.20;95327.66;5072804;28;20196;-62
2021/06/01 06:55:21;;;;;;;1999.90;999.90;;;;;;;13.49;88.68;95333.75;5072812;28;20188;-60
2021/06/01 06:57:48;;;;;;;1999.90;999.90;;;;;;;13.32;90.39;95329.38;5072850;28;20200;-60
2021/06/01 07:00:17;;;;;;;1999.90;999.90;;;;;;;13.40;89.36;95335.63;5072911;28;20222;-59
2021/06/01 07:02:44;;;;;;;1999.90;999.90;;;;;;;13.39;88.53;95347.16;5072714;28;20585;-61
2021/06/01 07:05:13;;;;;;;1999.90;999.90;;;;;;;13.17;86.88;95350.00;5072641;28;20255;-60
2021/06/01 07:07:41;;;;;;;1999.90;999.90;;;;;;;13.24;84.98;95355.50;5072557;28;20532;-61
2021/06/01 07:10:11;;;;;;;1999.90;999.90;;;;;;;13.52;85.97;95351.38;5072958;28;20295;-60
2021/06/01 07:12:42;;;;;;;1999.90;999.90;;;;;;;13.42;84.16;95349.13;5072668;28;20295;-58
2021/06/01 07:15:30;;;;;;;1999.90;999.90;;;;;;;13.28;82.66;95348.56;5072312;28;20601;-59
2021/06/01 07:17:59;;;;;;;1999.90;999.90;;;;;;;13.11;84.19;95344.19;5072371;28;20384;-61
2021/06/01 07:20:30;;;;;;;1999.90;999.90;;;;;;;13.15;84.54;95349.56;5072571;28;20266;-59
2021/06/01 07:22:56;;;;;;;1999.90;999.90;;;;;;;13.23;86.46;95343.53;5072279;28;20224;-62
2021/06/01 07:25:23;;;;;;;1999.90;999.90;;;;;;;13.27;86.25;95353.03;5072432;28;20279;-59
2021/06/01 07:27:52;;;;;;;1999.90;999.90;;;;;;;13.27;88.29;95353.03;5072226;28;20664;-61
2021/06/01 07:30:20;;;;;;;1999.90;999.90;;;;;;;13.08;89.41;95349.22;5072231;28;20200;-58
2021/06/01 07:32:47;;;;;;;1999.90;999.90;;;;;;;12.85;90.90;95343.47;5072016;28;20192;-60
2021/06/01 07:35:15;;;;;;;1999.90;999.90;;;;;;;12.72;90.37;95342.56;5071929;28;20193;-60
2021/06/01 07:37:42;;;;;;;1999.90;999.90;;;;;;;12.82;93.17;95341.47;5072325;28;20204;-59
2021/06/01 07:40:09;;;;;;;1999.90;999.90;;;;;;;13.01;91.07;95348.94;5071175;28;20652;-60
2021/06/01 07:42:36;;;;;;;1999.90;999.90;;;;;;;13.04;89.69;95356.94;5071975;28;20200;-60
2021/06/01 07:45:05;;;;;;;1999.90;999.90;;;;;;;12.87;88.53;95360.34;5071500;28;20715;-60
2021/06/01 07:47:32;;;;;;;1999.90;999.90;;;;;;;13.09;88.44;95356.00;5071726;28;20194;-61
2021/06/01 07:49:59;;;;;;;1999.90;999.90;;;;;;;13.55;87.84;95348.13;5071658;28;20653;-60
2021/06/01 07:52:27;;;;;;;1999.90;999.90;;;;;;;13.79;86.06;95344.94;5065701;28;20241;-67
2021/06/01 07:54:54;;;;;;;1999.90;999.90;;;;;;;14.02;85.92;95350.63;5069890;28;20291;-61
2021/06/01 07:57:20;;;;;;;1999.90;999.90;;;;;;;13.68;84.77;95357.59;5070813;28;20285;-60
2021/06/01 07:59:47;;;;;;;1999.90;999.90;;;;;;;13.52;84.46;95358.44;5063197;28;20307;-62
2021/06/01 08:02:16;;;;;;;1999.90;999.90;;;;;;;13.47;84.76;95364.63;5053696;28;20243;-59
2021/06/01 08:04:42;;;;;;;1999.90;999.90;;;;;;;13.37;87.71;95357.13;5050114;28;20668;-62
2021/06/01 08:07:11;;;;;;;1999.90;999.90;;;;;;;13.26;86.59;95361.94;5051113;28;20232;-62
2021/06/01 08:09:38;;;;;;;1999.90;999.90;;;;;;;13.17;85.44;95374.25;5050804;28;20197;-60
2021/06/01 08:12:06;;;;;;;1999.90;999.90;;;;;;;12.93;86.80;95366.16;5049968;28;20745;-61
2021/06/01 08:14:33;;;;;;;1999.90;999.90;;;;;;;12.82;88.39;95362.34;5050366;28;20197;-60
2021/06/01 08:17:01;;;;;;;1999.90;999.90;;;;;;;12.90;87.45;95362.31;5050540;28;20707;-60
2021/06/01 08:19:31;;;;;;;1999.90;999.90;;;;;;;12.89;87.83;95362.63;5050340;28;20201;-59
2021/06/01 08:22:01;;;;;;;1999.90;999.90;;;;;;;13.22;88.26;95360.25;5050790;28;20212;-62
2021/06/01 08:24:28;;;;;;;1999.90;999.90;;;;;;;13.22;90.49;95357.66;5051545;28;20236;-62
2021/06/01 08:26:55;;;;;;;1999.90;999.90;;;;;;;13.20;92.10;95362.44;5064870;28;20216;-61
2021/06/01 08:29:22;;;;;;;1999.90;999.90;;;;;;;13.22;90.31;95363.63;5069410;28;20197;-59
2021/06/01 08:31:48;;;;;;;1999.90;999.90;;;;;;;13.30;94.58;95359.44;5059539;28;20253;-61
2021/06/01 08:34:15;;;;;;;1999.90;999.90;;;;;;;13.43;91.78;95360.34;5069973;28;20188;-61
2021/06/01 08:36:44;;;;;;;1999.90;999.90;;;;;;;13.35;94.00;95359.28;5070353;28;20193;-60
2021/06/01 08:39:12;;;;;;;1999.90;999.90;;;;;;;13.44;91.88;95357.41;5070384;28;20562;-60
2021/06/01 08:41:41;;;;;;;1999.90;999.90;;;;;;;13.68;91.61;95360.22;5070936;28;20204;-61
2021/06/01 08:44:13;;;;;;;1999.90;999.90;;;;;;;13.89;92.54;95346.44;5070805;28;20514;-62
2021/06/01 08:46:40;;;;;;;1999.90;999.90;;;;;;;13.89;90.24;95351.66;5070606;28;20726;-62
2021/06/01 08:49:07;;;;;;;1999.90;999.90;;;;;;;13.89;88.51;95355.03;5070994;28;20690;-60
2021/06/01 08:51:34;;;;;;;1999.90;999.90;;;;;;;13.96;87.89;95359.75;5069597;28;20197;-61
2021/06/01 08:54:02;;;;;;;1999.90;999.90;;;;;;;13.73;88.20;95360.03;5070838;28;20197;-61
2021/06/01 08:56:29;;;;;;;1999.90;999.90;;;;;;;13.85;88.16;95361.94;5070368;28;20196;-61
2021/06/01 08:58:56;;;;;;;1999.90;999.90;;;;;;;13.89;87.36;95365.47;5070803;28;20193;-61
2021/06/01 09:01:23;;;;;;;1999.90;999.90;;;;;;;13.43;86.67;95371.56;5070745;28;20208;-61
2021/06/01 09:03:53;;;;;;;1999.90;999.90;;;;;;;13.28;88.68;95359.00;5070425;28;20196;-61
2021/06/01 09:06:23;;;;;;;1999.90;999.90;;;;;;;13.30;87.89;95370.66;5070386;28;20325;-60
2021/06/01 09:09:05;;;;;;;1999.90;999.90;;;;;;;13.13;89.00;95359.53;5070689;28;20200;-62
2021/06/01 09:11:53;;;;;;;1999.90;999.90;;;;;;;13.34;89.88;95363.00;5070678;28;20612;-61
2021/06/01 09:22:58;;;;;;;1999.90;999.90;;;;;;;13.96;88.42;95360.50;5070012;28;20722;-61
2021/06/01 09:25:35;;;;;;;1999.90;999.90;;;;;;;13.82;86.53;95367.06;5069876;28;20315;-62
2021/06/01 09:28:05;;;;;;;1999.90;999.90;;;;;;;13.88;91.20;95355.34;5070501;28;20188;-61
2021/06/01 09:30:34;;;;;;;1999.90;999.90;;;;;;;13.85;92.42;95361.22;5070067;28;20193;-61
2021/06/01 09:33:03;;;;;;;1999.90;999.90;;;;;;;13.77;92.03;95365.38;5070191;28;20291;-61
2021/06/01 09:35:55;;;;;;;1999.90;999.90;;;;;;;13.50;88.11;95365.84;5070011;28;20189;-63
2021/06/01 09:38:23;;;;;;;1999.90;999.90;;;;;;;13.43;92.31;95361.09;5055343;28;20333;-61
2021/06/01 09:41:04;;;;;;;1999.90;999.90;;;;;;;13.45;87.65;95358.94;5070045;28;20287;-61
2021/06/01 09:43:33;;;;;;;1999.90;999.90;;;;;;;13.74;86.77;95356.34;5070121;28;20207;-61
2021/06/01 09:46:19;;;;;;;1999.90;999.90;;;;;;;13.77;85.23;95360.94;5069808;28;20242;-61
2021/06/01 09:48:47;;;;;;;1999.90;999.90;;;;;;;13.74;84.93;95356.34;5070115;28;20526;-61
2021/06/01 09:51:33;;;;;;;1999.90;999.90;;;;;;;13.90;83.44;95355.81;5070104;28;20192;-61
2021/06/01 09:54:32;;;;;;;1999.90;999.90;;;;;;;13.92;85.79;95356.22;5069767;28;20192;-61
2021/06/01 09:57:00;;;;;;;1999.90;999.90;;;;;;;13.85;84.16;95353.38;5069497;28;20506;-60
2021/06/01 09:59:29;;;;;;;1999.90;999.90;;;;;;;13.83;82.69;95365.97;5070120;28;20705;-61
2021/06/01 10:01:56;;;;;;;1999.90;999.90;;;;;;;13.75;82.96;95364.94;5069991;28;20200;-60
2021/06/01 10:04:24;;;;;;;1999.90;999.90;;;;;;;13.93;82.75;95361.16;5073249;28;20686;-60
2021/06/01 10:06:51;;;;;;;1999.90;999.90;;;;;;;13.87;81.39;95365.03;5073763;28;20220;-62
2021/06/01 10:09:18;;;;;;;1999.90;999.90;;;;;;;13.75;82.99;95363.09;5073553;28;20752;-60
2021/06/01 10:11:54;;;;;;;1999.90;999.90;;;;;;;13.77;83.34;95358.31;5073433;28;20192;-60
2021/06/01 10:14:22;;;;;;;1999.90;999.90;;;;;;;13.92;82.90;95356.22;5073587;28;20709;-60
2021/06/01 10:16:50;;;;;;;1999.90;999.90;;;;;;;13.95;81.19;95355.59;5073547;28;20200;-60
2021/06/01 10:19:17;;;;;;;1999.90;999.90;;;;;;;14.37;82.02;95340.72;5073500;28;20337;-60
2021/06/01 10:21:45;;;;;;;1999.90;999.90;;;;;;;14.51;76.88;95349.06;5073494;28;20659;-60
2021/06/01 10:24:30;;;;;;;1999.90;999.90;;;;;;;14.91;78.97;95344.81;5072984;28;21082;-60
2021/06/01 10:26:58;;;;;;;1999.90;999.90;;;;;;;14.99;76.16;95351.06;5072940;28;20232;-61
2021/06/01 10:29:25;;;;;;;1999.90;999.90;;;;;;;15.21;76.30;95345.41;5073254;28;20203;-59
2021/06/01 10:31:53;;;;;;;1999.90;999.90;;;;;;;15.13;75.03;95338.44;5073111;28;20212;-60
2021/06/01 10:34:21;;;;;;;1999.90;999.90;;;;;;;14.91;77.08;95344.06;5073317;28;20196;-59
2021/06/01 10:42:32;;;;;;;1999.90;999.90;;;;;;;14.34;79.00;95346.56;5073161;28;20203;-60
2021/06/01 10:51:01;;;;;;;1999.90;999.90;;;;;;;14.12;80.80;95355.47;5072962;28;20287;-60
2021/06/01 10:53:38;;;;;;;1999.90;999.90;;;;;;;14.18;81.94;95359.44;5072804;28;20694;-59
2021/06/01 10:56:06;;;;;;;1999.90;999.90;;;;;;;14.02;81.03;95363.69;5073143;28;20261;-61
2021/06/01 10:59:03;;;;;;;1999.90;999.90;;;;;;;13.94;79.91;95369.75;5072625;28;20193;-60
2021/06/01 11:04:19;;;;;;;1999.90;999.90;;;;;;;14.47;77.52;95366.47;5072766;28;20203;-60
2021/06/01 11:07:24;;;;;;;1999.90;999.90;;;;;;;14.63;77.64;95364.81;5072542;28;20228;-59
2021/06/01 11:09:52;;;;;;;1999.90;999.90;;;;;;;14.86;75.34;95368.56;5072547;28;20287;-59
2021/06/01 11:12:45;;;;;;;1999.90;999.90;;;;;;;14.94;74.90;95362.47;5072533;28;20204;-61
2021/06/01 11:15:24;;;;;;;1999.90;999.90;;;;;;;15.32;75.61;95367.47;5071391;28;20188;-60
2021/06/01 11:17:51;;;;;;;1999.90;999.90;;;;;;;15.34;75.72;95357.41;5072586;28;20192;-60
2021/06/01 11:20:29;;;;;;;1999.90;999.90;;;;;;;15.30;74.92;95359.16;5072162;28;20197;-59
2021/06/01 11:23:12;;;;;;;1999.90;999.90;;;;;;;14.99;75.93;95362.28;5072128;28;20236;-59
2021/06/01 11:32:48;;;;;;;1999.90;999.90;;;;;;;14.64;75.24;95366.34;5072243;28;20208;-58
2021/06/01 11:34:37;;;;;;;1999.90;999.90;;;;;;;14.95;73.77;95374.47;5072088;28;20626;-59